Time;durP1;ratioP1;P1;durP2;ratioP2;P2;SDS_P1;SDS_P2;PMS_P1;PMS_P2;Temp;Humidity;BMP_temperature;BMP_pressure;BME280_temperature;BME280_humidity;BME280_pressure;Samples;Min_cycle;Max_cycle;Signal;HPM_P1;HPM_P2
2021/12/27 00:00:22;;;;;;;7.50;6.70;;;8.00;86.60;;;;;;5003053;28;20516;-67
2021/12/27 00:02:51;;;;;;;8.98;6.78;;;8.00;86.20;;;;;;5003451;28;20041;-67
2021/12/27 00:05:17;;;;;;;8.07;6.82;;;8.00;86.20;;;;;;5002173;28;20147;-67
2021/12/27 00:07:47;;;;;;;9.32;6.38;;;8.00;87.10;;;;;;5004203;28;20038;-67
2021/12/27 00:10:13;;;;;;;7.18;6.45;;;8.00;86.40;;;;;;5001613;28;20030;-67
2021/12/27 00:12:40;;;;;;;7.68;6.22;;;7.90;86.40;;;;;;4999580;28;20116;-65
2021/12/27 00:15:06;;;;;;;6.72;6.03;;;7.90;86.50;;;;;;4999717;28;20117;-67
2021/12/27 00:17:32;;;;;;;6.72;5.93;;;8.00;86.60;;;;;;5006313;28;20042;-67
2021/12/27 00:19:57;;;;;;;6.80;5.90;;;7.90;86.50;;;;;;5001804;28;20104;-66
2021/12/27 00:22:23;;;;;;;6.63;6.03;;;8.00;86.50;;;;;;5002510;28;20033;-67
2021/12/27 00:24:49;;;;;;;7.43;5.78;;;8.00;86.40;;;;;;5000099;28;20040;-67
2021/12/27 00:27:16;;;;;;;6.13;5.53;;;8.00;86.40;;;;;;5004077;28;20089;-67
2021/12/27 00:29:43;;;;;;;6.90;5.93;;;8.00;86.30;;;;;;5004041;28;20583;-67
2021/12/27 00:32:09;;;;;;;7.07;6.00;;;8.00;86.30;;;;;;5003202;28;20045;-67
2021/12/27 00:34:38;;;;;;;6.13;5.53;;;7.90;86.20;;;;;;5001584;28;20034;-67
2021/12/27 00:37:09;;;;;;;11.30;6.07;;;7.90;86.40;;;;;;5007655;28;20116;-67
2021/12/27 00:39:35;;;;;;;8.30;6.35;;;7.90;86.40;;;;;;5004748;28;20054;-67
2021/12/27 00:42:01;;;;;;;6.88;6.18;;;7.90;86.40;;;;;;5005893;28;20038;-67
2021/12/27 00:44:27;;;;;;;7.00;6.30;;;7.80;86.40;;;;;;5000450;28;20058;-66
2021/12/27 00:46:53;;;;;;;8.55;6.75;;;7.80;86.50;;;;;;5000636;28;20234;-66
2021/12/27 00:49:19;;;;;;;7.47;6.13;;;7.80;86.60;;;;;;5000891;28;20525;-67
2021/12/27 00:51:45;;;;;;;6.88;6.15;;;7.80;86.60;;;;;;5004759;28;20092;-66
2021/12/27 00:54:11;;;;;;;7.38;6.57;;;7.70;86.70;;;;;;5001452;28;20030;-66
2021/12/27 00:56:36;;;;;;;8.50;7.53;;;7.70;86.90;;;;;;5005602;28;20038;-67
2021/12/27 00:59:02;;;;;;;7.20;6.50;;;7.70;86.90;;;;;;4999591;28;20044;-67
2021/12/27 01:01:28;;;;;;;8.07;6.53;;;7.70;87.00;;;;;;5001548;28;20053;-66
2021/12/27 01:03:53;;;;;;;8.35;6.82;;;7.80;87.10;;;;;;5006737;28;20026;-67
2021/12/27 01:06:19;;;;;;;7.50;6.65;;;7.70;87.00;;;;;;5002100;28;20046;-67
2021/12/27 01:08:45;;;;;;;7.15;6.45;;;7.70;87.10;;;;;;5004701;28;20037;-67
2021/12/27 01:18:32;;;;;;;7.15;6.32;;;7.80;87.20;;;;;;4997756;28;20037;-67
2021/12/27 01:20:58;;;;;;;8.65;6.70;;;7.80;87.30;;;;;;4997879;28;20062;-66
2021/12/27 01:23:24;;;;;;;6.70;5.82;;;7.80;87.30;;;;;;5000442;28;20116;-67
2021/12/27 01:25:50;;;;;;;6.88;5.93;;;7.80;87.30;;;;;;5001264;28;20501;-67
2021/12/27 01:28:16;;;;;;;6.47;5.75;;;7.90;87.30;;;;;;5004540;28;20552;-66
2021/12/27 01:30:47;;;;;;;6.45;5.68;;;7.90;87.20;;;;;;4998220;28;20053;-67
2021/12/27 01:33:14;;;;;;;6.80;5.70;;;7.90;87.10;;;;;;5001049;28;20120;-67
2021/12/27 01:35:40;;;;;;;7.30;5.25;;;7.90;87.10;;;;;;5001151;28;20037;-66
2021/12/27 01:38:06;;;;;;;6.35;5.68;;;7.90;87.10;;;;;;5007098;28;20880;-67
2021/12/27 01:40:32;;;;;;;6.30;5.65;;;7.90;87.10;;;;;;5000689;28;20485;-67
2021/12/27 01:43:12;;;;;;;6.22;5.63;;;8.00;88.00;;;;;;4999623;28;20069;-66
2021/12/27 01:45:44;;;;;;;7.25;6.20;;;8.00;87.20;;;;;;5007047;28;20026;-67
2021/12/27 01:48:12;;;;;;;6.75;5.75;;;8.00;86.90;;;;;;5002543;28;20096;-67
2021/12/27 01:50:43;;;;;;;7.15;6.45;;;8.00;86.90;;;;;;5004956;28;20041;-67
2021/12/27 01:53:09;;;;;;;6.85;6.20;;;8.10;87.00;;;;;;5002752;28;20044;-67
2021/12/27 01:55:36;;;;;;;6.03;5.43;;;8.00;87.00;;;;;;5000719;28;20026;-67
2021/12/27 01:58:03;;;;;;;6.47;5.78;;;8.10;87.20;;;;;;5002407;28;20044;-67
2021/12/27 02:00:29;;;;;;;6.50;5.90;;;8.10;87.30;;;;;;5001690;28;20038;-67
2021/12/27 02:02:54;;;;;;;8.50;6.35;;;8.10;87.10;;;;;;4999360;28;20312;-67
2021/12/27 02:05:20;;;;;;;7.75;6.45;;;8.10;87.00;;;;;;4999469;28;20703;-66
2021/12/27 02:07:46;;;;;;;7.85;6.13;;;8.20;86.90;;;;;;5003773;28;20040;-67
2021/12/27 02:10:13;;;;;;;6.75;6.05;;;8.20;86.90;;;;;;5001020;28;20088;-67
2021/12/27 02:12:39;;;;;;;7.18;6.47;;;8.20;86.70;;;;;;4996813;28;20073;-67
2021/12/27 02:15:09;;;;;;;6.95;6.25;;;8.20;86.70;;;;;;4999663;28;20042;-67
2021/12/27 02:17:37;;;;;;;7.82;6.40;;;8.20;86.80;;;;;;4998779;28;20034;-66
2021/12/27 02:20:15;;;;;;;7.55;6.15;;;8.20;86.80;;;;;;4996400;28;20038;-67
2021/12/27 02:22:40;;;;;;;7.00;6.30;;;8.20;86.90;;;;;;4997572;28;20508;-67
2021/12/27 02:25:08;;;;;;;7.47;6.32;;;8.20;87.00;;;;;;4999310;28;20060;-66
2021/12/27 02:27:34;;;;;;;7.85;6.55;;;8.20;87.00;;;;;;5001433;28;20034;-66
2021/12/27 02:30:00;;;;;;;6.50;5.80;;;8.10;86.90;;;;;;5000818;28;20030;-67
2021/12/27 02:32:26;;;;;;;6.90;6.20;;;8.20;87.00;;;;;;4998899;28;20511;-67
2021/12/27 02:34:52;;;;;;;7.10;6.40;;;8.20;87.10;;;;;;4998243;28;20042;-66
2021/12/27 02:37:18;;;;;;;7.30;6.47;;;8.20;87.10;;;;;;5005441;28;20396;-67
2021/12/27 02:39:46;;;;;;;7.47;6.40;;;8.20;87.10;;;;;;5001746;28;20053;-66
2021/12/27 02:42:19;;;;;;;7.90;6.70;;;8.20;87.10;;;;;;5003371;28;20397;-66
2021/12/27 02:44:45;;;;;;;7.38;6.68;;;8.20;87.20;;;;;;4998958;28;20370;-66
2021/12/27 02:47:14;;;;;;;7.07;6.38;;;8.20;87.20;;;;;;5000478;28;20172;-66
2021/12/27 02:49:40;;;;;;;7.63;6.47;;;8.20;87.30;;;;;;5003842;28;20133;-67
2021/12/27 02:52:06;;;;;;;8.40;6.70;;;8.20;87.30;;;;;;5003417;28;20168;-67
2021/12/27 02:54:31;;;;;;;7.80;6.68;;;8.20;87.30;;;;;;4996792;28;20041;-67
2021/12/27 02:56:57;;;;;;;7.43;6.28;;;8.20;87.20;;;;;;5002323;28;20030;-67
2021/12/27 02:59:22;;;;;;;9.85;6.85;;;8.30;87.30;;;;;;4998988;28;20035;-67
2021/12/27 03:01:48;;;;;;;7.03;6.30;;;8.30;87.30;;;;;;5005149;28;20042;-67
2021/12/27 03:04:14;;;;;;;6.85;6.15;;;8.30;87.20;;;;;;4999940;28;20718;-67
2021/12/27 03:06:39;;;;;;;7.53;6.32;;;8.30;87.10;;;;;;5002221;28;20112;-67
2021/12/27 03:09:05;;;;;;;8.13;6.30;;;8.30;87.10;;;;;;4998187;28;20033;-66
2021/12/27 03:11:30;;;;;;;7.43;6.65;;;8.40;87.10;;;;;;4999321;28;20034;-67
2021/12/27 03:13:56;;;;;;;7.78;6.85;;;8.30;87.00;;;;;;5000596;28;20112;-66
2021/12/27 03:16:23;;;;;;;7.95;6.53;;;8.40;87.90;;;;;;5003831;28;20036;-67
2021/12/27 03:18:52;;;;;;;7.47;6.22;;;8.40;87.10;;;;;;5000705;28;20041;-67
2021/12/27 03:21:19;;;;;;;7.05;6.30;;;8.40;87.00;;;;;;4995318;28;20141;-67
2021/12/27 03:23:47;;;;;;;8.13;6.43;;;8.40;86.90;;;;;;4998734;28;20030;-66
2021/12/27 03:26:13;;;;;;;7.72;6.47;;;8.40;86.90;;;;;;4999368;28;20030;-67
2021/12/27 03:28:39;;;;;;;6.95;5.93;;;8.40;86.90;;;;;;4996396;28;20030;-66
2021/12/27 03:31:07;;;;;;;7.43;6.63;;;8.40;86.90;;;;;;4996883;28;20125;-67
2021/12/27 03:33:33;;;;;;;6.85;6.15;;;8.40;86.80;;;;;;4999963;28;20034;-67
2021/12/27 03:36:04;;;;;;;7.00;5.97;;;8.40;86.80;;;;;;5001181;28;20088;-66
2021/12/27 03:38:33;;;;;;;6.90;5.90;;;8.40;86.90;;;;;;5000872;28;20030;-67
2021/12/27 03:41:00;;;;;;;6.90;6.20;;;8.40;86.90;;;;;;4996368;28;20030;-67
2021/12/27 03:43:25;;;;;;;5.95;5.35;;;8.50;86.90;;;;;;5002354;28;20416;-66
2021/12/27 03:45:51;;;;;;;6.50;5.80;;;8.50;86.90;;;;;;5007582;28;20038;-67
2021/12/27 03:48:17;;;;;;;6.63;5.47;;;8.50;86.80;;;;;;5006640;28;20046;-67
2021/12/27 03:50:43;;;;;;;6.40;5.45;;;8.50;86.70;;;;;;5003512;28;20036;-66
2021/12/27 03:53:09;;;;;;;6.75;6.05;;;8.50;86.70;;;;;;5006561;28;20069;-66
2021/12/27 03:55:35;;;;;;;7.57;5.70;;;8.50;86.60;;;;;;5007554;28;20040;-67
2021/12/27 03:58:09;;;;;;;5.75;5.15;;;8.40;86.60;;;;;;5003769;28;20504;-66
2021/12/27 04:00:50;;;;;;;6.22;5.00;;;8.40;86.70;;;;;;5003165;28;20420;-67
2021/12/27 04:03:17;;;;;;;6.72;5.18;;;8.40;86.90;;;;;;5001505;28;20492;-67
2021/12/27 04:05:43;;;;;;;5.82;5.22;;;8.40;86.90;;;;;;5005886;28;20029;-66
2021/12/27 04:08:09;;;;;;;6.25;5.43;;;8.40;87.10;;;;;;5004796;28;20092;-67
2021/12/27 04:10:41;;;;;;;7.03;5.50;;;8.40;87.10;;;;;;5000879;28;20394;-66
2021/12/27 04:13:09;;;;;;;7.05;5.03;;;8.40;87.10;;;;;;5001619;28;20118;-67
2021/12/27 04:15:35;;;;;;;5.75;5.15;;;8.50;87.20;;;;;;5004175;28;20509;-67
2021/12/27 04:18:02;;;;;;;6.07;5.20;;;8.50;87.10;;;;;;5003278;28;20074;-67
2021/12/27 04:20:27;;;;;;;5.93;5.22;;;8.50;87.10;;;;;;5002697;28;20435;-65
2021/12/27 04:22:53;;;;;;;6.60;5.60;;;8.50;87.10;;;;;;4997885;28;20046;-67
2021/12/27 04:25:20;;;;;;;5.90;5.30;;;8.50;86.90;;;;;;5002222;28;20030;-67
2021/12/27 04:27:47;;;;;;;6.80;5.10;;;8.50;86.90;;;;;;5006334;28;20034;-67
2021/12/27 04:30:15;;;;;;;6.20;5.53;;;8.60;86.90;;;;;;5001386;28;20602;-67
2021/12/27 04:32:41;;;;;;;6.90;6.00;;;8.60;86.80;;;;;;4999915;28;20096;-65
2021/12/27 04:35:07;;;;;;;6.00;5.40;;;8.70;86.90;;;;;;5003556;28;20062;-67
2021/12/27 04:37:33;;;;;;;6.30;5.22;;;8.60;86.70;;;;;;5006554;28;20409;-67
2021/12/27 04:40:00;;;;;;;6.72;6.03;;;8.60;86.70;;;;;;5001580;28;20033;-67
2021/12/27 04:42:29;;;;;;;7.10;6.20;;;8.60;86.60;;;;;;5000868;28;20042;-67
2021/12/27 04:44:55;;;;;;;7.35;5.65;;;8.70;86.70;;;;;;5003824;28;20099;-66
2021/12/27 04:47:20;;;;;;;7.10;5.50;;;8.70;86.70;;;;;;5003122;28;20396;-66
2021/12/27 04:49:46;;;;;;;8.20;6.05;;;8.70;86.70;;;;;;5000024;28;20030;-66
2021/12/27 04:52:12;;;;;;;6.78;5.95;;;8.60;86.70;;;;;;5001788;28;20045;-67
2021/12/27 04:54:38;;;;;;;8.32;6.07;;;8.70;86.70;;;;;;4999086;28;20128;-66
2021/12/27 04:57:05;;;;;;;6.97;5.90;;;8.70;86.60;;;;;;5006157;28;20505;-66
2021/12/27 04:59:31;;;;;;;8.05;6.43;;;8.70;86.40;;;;;;5001985;28;20068;-67
2021/12/27 05:01:57;;;;;;;8.00;6.97;;;8.70;86.40;;;;;;5002603;28;20436;-67
2021/12/27 05:04:23;;;;;;;10.00;7.28;;;8.70;86.30;;;;;;5003393;28;20030;-66
2021/12/27 05:06:48;;;;;;;28.83;13.80;;;8.70;86.30;;;;;;5001946;28;20462;-67
2021/12/27 05:09:14;;;;;;;40.47;19.50;;;8.70;86.20;;;;;;4999956;28;20034;-66
2021/12/27 05:11:40;;;;;;;34.05;17.70;;;8.70;86.20;;;;;;4998665;28;20123;-67
2021/12/27 05:14:07;;;;;;;24.88;14.20;;;8.60;86.20;;;;;;4998712;28;20034;-67
2021/12/27 05:16:32;;;;;;;13.88;10.00;;;8.70;86.20;;;;;;4998340;28;20049;-66
2021/12/27 05:18:58;;;;;;;11.27;8.57;;;8.70;86.20;;;;;;5000229;28;20045;-67
2021/12/27 05:21:24;;;;;;;10.35;8.18;;;8.70;86.20;;;;;;4997174;28;20042;-66
2021/12/27 05:23:50;;;;;;;8.63;7.32;;;8.60;86.20;;;;;;4999514;28;20034;-67
2021/12/27 05:26:15;;;;;;;9.98;8.15;;;8.70;86.20;;;;;;4999699;28;20034;-67
2021/12/27 05:28:41;;;;;;;10.88;7.90;;;8.60;86.10;;;;;;5003439;28;20030;-66
2021/12/27 05:31:07;;;;;;;10.98;8.45;;;8.60;86.10;;;;;;5002596;28;20034;-67
2021/12/27 05:33:32;;;;;;;9.15;8.05;;;8.60;86.00;;;;;;5000321;28;20041;-66
2021/12/27 05:35:58;;;;;;;10.00;8.23;;;8.60;86.10;;;;;;5003337;28;20030;-67
2021/12/27 05:38:24;;;;;;;9.18;7.57;;;8.60;86.20;;;;;;5003815;28;21023;-67
2021/12/27 05:40:50;;;;;;;10.00;8.30;;;8.60;86.20;;;;;;5001257;28;20567;-67
2021/12/27 05:43:15;;;;;;;8.55;7.60;;;8.60;86.10;;;;;;5004310;28;20041;-67
2021/12/27 05:45:41;;;;;;;10.43;8.00;;;8.50;86.10;;;;;;4999488;28;20030;-67
2021/12/27 05:48:07;;;;;;;9.30;8.02;;;8.60;86.00;;;;;;4999005;28;20042;-66
2021/12/27 05:50:34;;;;;;;9.68;8.32;;;8.50;86.00;;;;;;5003595;28;20065;-67
2021/12/27 05:53:01;;;;;;;10.23;8.27;;;8.50;85.90;;;;;;5001691;28;20029;-66
2021/12/27 05:55:27;;;;;;;9.85;8.07;;;8.50;86.00;;;;;;5003578;28;20095;-68
2021/12/27 05:57:53;;;;;;;8.60;7.50;;;8.50;86.00;;;;;;5002617;28;20117;-67
2021/12/27 06:00:20;;;;;;;9.25;7.85;;;8.40;86.00;;;;;;4999996;28;20042;-67
2021/12/27 06:02:46;;;;;;;9.25;8.07;;;8.40;86.00;;;;;;5003748;28;20508;-66
2021/12/27 06:05:13;;;;;;;9.40;7.95;;;8.40;86.20;;;;;;5002215;28;20053;-67
2021/12/27 06:07:38;;;;;;;11.55;8.18;;;8.40;86.00;;;;;;5005718;28;20440;-67
2021/12/27 06:10:05;;;;;;;10.32;8.52;;;8.40;86.00;;;;;;5004976;28;20041;-67
2021/12/27 06:12:31;;;;;;;9.48;8.10;;;8.40;85.90;;;;;;4995773;28;20026;-66
2021/12/27 06:14:57;;;;;;;8.10;7.30;;;8.30;85.70;;;;;;5001405;28;20133;-67
2021/12/27 06:17:23;;;;;;;9.35;8.02;;;8.30;85.70;;;;;;5002022;28;20165;-67
2021/12/27 06:19:48;;;;;;;9.35;7.38;;;8.30;85.70;;;;;;5003836;28;20041;-67
2021/12/27 06:22:14;;;;;;;9.35;7.38;;;8.30;85.50;;;;;;4999544;28;20069;-66
2021/12/27 06:24:40;;;;;;;10.32;7.70;;;8.30;85.40;;;;;;4998099;28;20064;-66
2021/12/27 06:27:05;;;;;;;7.82;6.63;;;8.30;85.20;;;;;;5001733;28;20531;-66
2021/12/27 06:29:31;;;;;;;9.10;7.85;;;8.20;84.90;;;;;;4997466;28;20033;-67
2021/12/27 06:31:56;;;;;;;12.40;9.95;;;8.20;84.80;;;;;;5001562;28;20030;-67
2021/12/27 06:34:22;;;;;;;9.20;8.18;;;8.20;84.60;;;;;;4999304;28;20096;-67
2021/12/27 06:36:48;;;;;;;9.35;8.32;;;8.10;84.30;;;;;;5002346;28;20061;-66
2021/12/27 06:39:14;;;;;;;8.45;7.55;;;8.10;84.10;;;;;;5001296;28;20042;-67
2021/12/27 06:41:40;;;;;;;9.30;6.97;;;8.00;84.00;;;;;;5001489;28;20045;-67
2021/12/27 06:44:06;;;;;;;8.45;6.93;;;8.00;83.90;;;;;;5002265;28;20079;-67
2021/12/27 06:46:31;;;;;;;8.30;7.38;;;7.90;83.80;;;;;;5012966;28;20346;-67
2021/12/27 06:48:57;;;;;;;11.40;8.80;;;7.90;84.00;;;;;;5000049;28;20497;-67
2021/12/27 06:51:23;;;;;;;11.35;8.60;;;7.80;83.90;;;;;;5001902;28;20062;-67
2021/12/27 06:53:48;;;;;;;11.65;9.52;;;7.80;83.80;;;;;;5004191;28;20044;-65
2021/12/27 06:56:14;;;;;;;12.48;9.80;;;7.70;83.60;;;;;;5002111;28;20115;-66
2021/12/27 06:58:40;;;;;;;12.85;9.45;;;7.70;83.60;;;;;;4998842;28;20065;-66
2021/12/27 07:01:07;;;;;;;12.38;9.82;;;7.60;83.50;;;;;;5001339;28;20040;-66
2021/12/27 07:03:32;;;;;;;13.88;11.00;;;7.50;83.50;;;;;;5001014;28;20891;-66
2021/12/27 07:05:59;;;;;;;13.32;10.50;;;7.50;83.80;;;;;;5002571;28;20030;-67
2021/12/27 07:08:24;;;;;;;21.38;14.60;;;7.40;84.00;;;;;;5000887;28;20501;-67
2021/12/27 07:10:50;;;;;;;28.13;18.88;;;7.30;84.30;;;;;;4995651;28;20046;-67
2021/12/27 07:13:16;;;;;;;21.48;14.85;;;7.30;84.60;;;;;;4999067;28;20026;-67
2021/12/27 07:15:42;;;;;;;21.90;14.50;;;7.20;84.70;;;;;;5000408;28;20150;-67
2021/12/27 07:18:12;;;;;;;19.63;11.48;;;7.20;84.80;;;;;;5000692;28;20064;-66
2021/12/27 07:20:39;;;;;;;12.48;9.90;;;7.20;84.80;;;;;;5001957;28;20124;-67
2021/12/27 07:23:06;;;;;;;12.13;9.63;;;7.10;85.00;;;;;;5004170;28;20065;-67
2021/12/27 07:25:32;;;;;;;11.48;9.40;;;7.10;85.30;;;;;;5001739;28;20038;-67
2021/12/27 07:27:58;;;;;;;9.48;7.97;;;7.10;85.40;;;;;;5004778;28;20052;-67
2021/12/27 07:30:24;;;;;;;11.13;8.85;;;7.10;85.40;;;;;;4999504;28;20042;-65
2021/12/27 07:32:50;;;;;;;11.43;8.98;;;7.10;85.40;;;;;;5000393;28;20358;-67
2021/12/27 07:35:16;;;;;;;11.85;9.00;;;7.10;85.20;;;;;;5000803;28;20710;-66
2021/12/27 07:37:42;;;;;;;13.02;9.95;;;7.10;85.30;;;;;;4999394;28;20045;-66
2021/12/27 07:40:08;;;;;;;11.23;9.02;;;7.00;85.30;;;;;;5003461;28;20053;-66
2021/12/27 07:42:34;;;;;;;12.32;9.82;;;7.00;85.40;;;;;;4998913;28;20136;-67
2021/12/27 07:44:59;;;;;;;12.70;9.60;;;7.00;85.30;;;;;;5001210;28;20205;-66
2021/12/27 07:47:25;;;;;;;12.30;9.43;;;7.00;85.30;;;;;;5003396;28;20033;-67
2021/12/27 07:49:51;;;;;;;10.93;8.55;;;7.00;85.40;;;;;;5003907;28;20038;-66
2021/12/27 07:52:16;;;;;;;16.08;11.50;;;7.00;85.50;;;;;;5005548;28;20243;-67
2021/12/27 07:54:42;;;;;;;51.95;41.38;;;7.00;85.50;;;;;;5005960;28;20606;-66
2021/12/27 07:57:08;;;;;;;30.55;22.85;;;7.00;85.50;;;;;;5002077;28;20448;-67
2021/12/27 07:59:33;;;;;;;35.78;25.08;;;7.00;85.40;;;;;;4998557;28;20073;-67
2021/12/27 08:01:59;;;;;;;24.25;16.67;;;7.00;85.50;;;;;;5003358;28;20034;-67
2021/12/27 08:04:25;;;;;;;27.15;18.67;;;7.00;85.50;;;;;;5002789;28;20032;-67
2021/12/27 08:06:51;;;;;;;33.08;20.15;;;7.00;85.70;;;;;;5001694;28;20026;-66
2021/12/27 08:09:17;;;;;;;29.08;18.45;;;7.00;85.90;;;;;;5003431;28;20030;-66
2021/12/27 08:11:42;;;;;;;40.33;21.88;;;6.90;86.00;;;;;;5000670;28;20802;-66
2021/12/27 08:14:08;;;;;;;39.90;18.10;;;6.90;86.00;;;;;;4998574;28;20042;-66
2021/12/27 08:16:33;;;;;;;34.13;17.80;;;6.90;86.00;;;;;;4999167;28;20034;-67
2021/12/27 08:18:59;;;;;;;27.67;16.83;;;6.90;86.00;;;;;;4998370;28;20095;-66
2021/12/27 08:21:26;;;;;;;24.33;14.77;;;6.90;86.10;;;;;;4998159;28;20149;-67
2021/12/27 08:23:53;;;;;;;25.08;15.55;;;6.90;86.20;;;;;;4999238;28;20092;-66
2021/12/27 08:26:19;;;;;;;24.40;15.45;;;6.90;86.50;;;;;;5001345;28;20026;-67
2021/12/27 08:28:47;;;;;;;24.35;14.10;;;6.90;86.60;;;;;;4999537;28;20038;-65
2021/12/27 08:31:12;;;;;;;18.45;12.60;;;7.00;86.70;;;;;;4999145;28;20030;-66
2021/12/27 08:33:38;;;;;;;19.25;13.25;;;7.00;86.70;;;;;;4990521;28;20038;-67
2021/12/27 08:36:05;;;;;;;23.27;13.65;;;7.00;86.90;;;;;;4993036;28;20103;-67
2021/12/27 08:38:31;;;;;;;15.80;10.98;;;7.10;87.00;;;;;;4991536;28;20397;-67
2021/12/27 08:40:56;;;;;;;16.42;11.27;;;7.10;87.00;;;;;;4997848;28;20849;-67
2021/12/27 08:43:22;;;;;;;14.90;10.55;;;7.10;87.10;;;;;;4996944;28;20412;-67
2021/12/27 08:45:50;;;;;;;15.20;9.55;;;7.20;87.10;;;;;;4994585;28;20049;-67
2021/12/27 08:48:16;;;;;;;12.88;9.88;;;7.20;87.20;;;;;;4993133;28;20607;-66
2021/12/27 08:50:42;;;;;;;14.38;10.73;;;7.30;87.30;;;;;;4993066;28;20065;-65
2021/12/27 08:53:08;;;;;;;16.25;10.75;;;7.40;87.20;;;;;;4993121;28;20088;-66
2021/12/27 08:55:36;;;;;;;16.38;11.00;;;7.40;87.00;;;;;;4996277;28;20046;-67
2021/12/27 08:58:03;;;;;;;17.63;11.85;;;7.40;87.10;;;;;;4995704;28;20038;-67
2021/12/27 09:00:29;;;;;;;16.13;11.05;;;7.40;87.10;;;;;;4991661;28;20034;-66
2021/12/27 09:02:54;;;;;;;15.75;11.10;;;7.40;87.10;;;;;;4996467;28;20048;-66
2021/12/27 09:05:20;;;;;;;12.32;9.85;;;7.50;87.20;;;;;;4992422;28;20030;-66
2021/12/27 09:07:46;;;;;;;15.73;11.18;;;7.50;87.30;;;;;;4993228;28;20030;-66
2021/12/27 09:10:11;;;;;;;12.80;10.13;;;7.60;87.40;;;;;;4995067;28;20042;-67
2021/12/27 09:12:38;;;;;;;15.82;11.20;;;7.60;87.40;;;;;;4995966;28;20602;-66
2021/12/27 09:15:05;;;;;;;13.95;10.70;;;7.60;87.40;;;;;;4992858;28;20034;-66
2021/12/27 09:17:30;;;;;;;10.18;8.10;;;7.70;87.50;;;;;;5003581;28;20023;-67
2021/12/27 09:19:56;;;;;;;11.00;8.73;;;7.70;87.60;;;;;;5000316;28;20559;-67
2021/12/27 09:22:22;;;;;;;12.77;8.95;;;7.70;87.70;;;;;;5001119;28;20046;-66
2021/12/27 09:24:48;;;;;;;11.23;8.68;;;7.80;87.80;;;;;;4993332;28;20030;-65
2021/12/27 09:27:13;;;;;;;11.35;8.75;;;7.80;87.80;;;;;;4997373;28;20668;-66
2021/12/27 09:29:41;;;;;;;9.65;7.60;;;7.80;87.90;;;;;;4999158;28;20038;-67
2021/12/27 09:32:07;;;;;;;10.70;8.07;;;7.80;87.90;;;;;;4997504;28;20574;-65
2021/12/27 09:34:32;;;;;;;12.55;8.70;;;7.90;88.00;;;;;;4994196;28;20038;-66
2021/12/27 09:36:58;;;;;;;7.72;6.28;;;7.90;88.00;;;;;;4994059;28;20669;-67
2021/12/27 09:39:24;;;;;;;9.60;6.03;;;7.90;88.00;;;;;;4995418;28;20046;-66
2021/12/27 09:41:49;;;;;;;6.90;5.60;;;8.00;88.00;;;;;;4996631;28;20034;-66
2021/12/27 09:44:15;;;;;;;8.27;6.38;;;8.00;88.00;;;;;;5001831;28;20551;-67
2021/12/27 09:46:41;;;;;;;8.38;6.35;;;8.10;88.00;;;;;;5004077;28;20037;-66
2021/12/27 09:49:12;;;;;;;7.53;5.72;;;8.10;87.80;;;;;;5002179;28;20030;-65
2021/12/27 09:51:40;;;;;;;7.90;5.75;;;8.10;87.70;;;;;;5003066;28;20034;-66
2021/12/27 09:54:06;;;;;;;7.82;5.93;;;8.10;87.60;;;;;;5004526;28;20038;-67
2021/12/27 09:56:32;;;;;;;6.47;5.68;;;8.20;87.60;;;;;;4999046;28;20041;-66
2021/12/27 09:58:58;;;;;;;7.65;5.88;;;8.20;87.60;;;;;;4999760;28;20026;-67
2021/12/27 10:01:24;;;;;;;7.13;5.53;;;8.30;87.70;;;;;;4994333;28;20816;-66
2021/12/27 10:03:52;;;;;;;5.05;4.55;;;8.30;87.40;;;;;;4994785;28;20044;-65
2021/12/27 10:06:20;;;;;;;5.05;4.55;;;8.30;87.10;;;;;;4992670;28;20791;-66
2021/12/27 10:08:49;;;;;;;5.72;5.10;;;8.40;87.10;;;;;;4996618;28;20137;-67
2021/12/27 10:11:17;;;;;;;5.63;4.60;;;8.40;87.20;;;;;;4993136;28;20117;-67
2021/12/27 10:13:58;;;;;;;5.80;4.97;;;8.40;87.10;;;;;;4994448;28;20141;-66
2021/12/27 10:16:24;;;;;;;6.18;5.32;;;8.40;86.70;;;;;;4994289;28;20038;-66
2021/12/27 10:19:04;;;;;;;7.30;5.10;;;8.50;86.70;;;;;;4996820;28;20037;-63
2021/12/27 10:21:30;;;;;;;6.45;5.13;;;8.50;87.00;;;;;;4995473;28;21284;-66
2021/12/27 10:24:04;;;;;;;5.85;5.00;;;8.50;86.90;;;;;;4996854;28;20045;-67
2021/12/27 10:26:31;;;;;;;5.55;4.50;;;8.50;86.50;;;;;;4994264;28;20099;-67
2021/12/27 10:29:07;;;;;;;5.38;4.55;;;8.50;86.60;;;;;;5000787;28;20042;-67
2021/12/27 10:32:14;;;;;;;5.80;4.93;;;8.50;86.60;;;;;;4999434;28;20041;-67
2021/12/27 10:34:46;;;;;;;5.57;5.07;;;8.60;86.70;;;;;;4934849;28;20246;-66
2021/12/27 10:37:16;;;;;;;6.13;5.18;;;8.60;86.70;;;;;;4941416;29;20027;-66
2021/12/27 10:39:43;;;;;;;6.43;5.22;;;8.60;86.70;;;;;;4961494;28;20033;-67
2021/12/27 10:42:09;;;;;;;6.63;5.65;;;8.70;86.90;;;;;;4996449;28;20045;-65
2021/12/27 10:44:39;;;;;;;6.57;5.10;;;8.70;86.90;;;;;;4992961;28;20030;-66
2021/12/27 10:47:27;;;;;;;6.45;5.32;;;8.70;86.80;;;;;;4994835;28;20029;-66
2021/12/27 10:49:54;;;;;;;5.97;4.95;;;8.80;86.40;;;;;;4995678;28;20038;-66
2021/12/27 10:52:20;;;;;;;8.88;5.47;;;8.80;86.50;;;;;;4996538;28;20034;-64
2021/12/27 10:54:46;;;;;;;6.20;5.18;;;8.90;86.50;;;;;;5000934;28;20555;-66
2021/12/27 10:57:14;;;;;;;10.18;5.10;;;8.90;86.50;;;;;;5000897;28;20034;-67
2021/12/27 10:59:39;;;;;;;8.90;5.00;;;9.00;86.40;;;;;;5004960;28;20117;-67
2021/12/27 11:02:11;;;;;;;6.15;5.05;;;9.00;86.20;;;;;;5004709;28;20117;-66
2021/12/27 11:04:38;;;;;;;6.88;6.03;;;9.00;86.00;;;;;;4998839;28;20038;-67
2021/12/27 11:07:07;;;;;;;5.78;5.07;;;8.90;86.00;;;;;;4996944;28;20116;-66
2021/12/27 11:09:34;;;;;;;5.25;4.55;;;9.00;85.90;;;;;;5005537;28;20038;-67
2021/12/27 11:12:01;;;;;;;5.30;4.63;;;9.10;85.80;;;;;;5000731;28;20513;-67
2021/12/27 11:14:27;;;;;;;7.78;4.45;;;9.10;85.70;;;;;;5006863;28;20034;-67
2021/12/27 11:16:54;;;;;;;7.25;4.30;;;9.20;85.60;;;;;;5008984;28;20061;-65
2021/12/27 11:19:20;;;;;;;4.50;4.10;;;9.20;85.50;;;;;;5000925;28;20481;-66
2021/12/27 11:21:48;;;;;;;4.10;3.70;;;9.20;85.50;;;;;;5001106;28;20038;-67
2021/12/27 11:24:15;;;;;;;4.75;3.67;;;9.20;85.40;;;;;;5004113;28;20030;-67
2021/12/27 11:26:42;;;;;;;4.32;3.92;;;9.20;85.20;;;;;;5004403;28;20037;-67
2021/12/27 11:29:13;;;;;;;4.82;4.03;;;9.10;85.10;;;;;;5008845;28;20030;-67
2021/12/27 11:31:40;;;;;;;3.97;3.25;;;9.20;85.00;;;;;;5005933;28;20038;-67
2021/12/27 11:34:09;;;;;;;3.70;3.08;;;9.10;85.90;;;;;;4998797;28;20049;-66
2021/12/27 11:36:40;;;;;;;3.63;3.33;;;9.10;85.00;;;;;;4999174;28;20054;-67
2021/12/27 11:39:25;;;;;;;3.80;3.45;;;9.10;85.20;;;;;;4999906;28;20034;-67
2021/12/27 11:41:57;;;;;;;3.70;3.30;;;9.10;84.40;;;;;;5001389;28;20030;-66
2021/12/27 11:44:37;;;;;;;4.40;3.85;;;9.20;85.20;;;;;;4998310;28;20030;-67
2021/12/27 11:47:03;;;;;;;3.78;3.47;;;9.20;85.10;;;;;;5005722;28;20057;-67
2021/12/27 11:49:47;;;;;;;3.60;3.30;;;9.20;85.20;;;;;;5003901;28;20143;-66
2021/12/27 11:52:15;;;;;;;4.75;4.30;;;9.20;84.80;;;;;;5003561;28;20463;-66
2021/12/27 11:54:48;;;;;;;4.03;3.70;;;9.20;84.80;;;;;;4999255;28;20045;-67
2021/12/27 11:57:38;;;;;;;4.40;4.00;;;9.20;84.80;;;;;;5007223;28;20509;-66
2021/12/27 12:00:21;;;;;;;3.65;3.35;;;9.30;84.40;;;;;;5008019;28;20417;-67
2021/12/27 12:02:52;;;;;;;3.60;3.30;;;9.20;84.10;;;;;;5007593;28;20074;-67
2021/12/27 12:05:44;;;;;;;3.95;3.55;;;9.30;84.30;;;;;;5006795;28;20512;-66
2021/12/27 12:08:11;;;;;;;3.30;2.92;;;9.20;84.20;;;;;;5008572;28;20129;-68
2021/12/27 12:10:48;;;;;;;3.88;3.53;;;9.20;84.80;;;;;;5004263;28;20048;-67
2021/12/27 12:13:21;;;;;;;3.80;3.50;;;9.20;84.60;;;;;;5005283;28;20505;-66
2021/12/27 12:16:10;;;;;;;3.08;2.85;;;9.30;84.40;;;;;;5008024;28;20034;-64
2021/12/27 12:18:40;;;;;;;3.80;3.50;;;9.30;84.20;;;;;;5006561;28;20033;-66
2021/12/27 12:21:26;;;;;;;4.30;3.90;;;9.30;84.50;;;;;;5003938;28;20042;-68
2021/12/27 12:23:58;;;;;;;4.53;4.07;;;9.40;84.60;;;;;;5008354;28;20046;-67
2021/12/27 12:26:24;;;;;;;5.65;5.13;;;9.40;84.70;;;;;;5005871;28;20034;-67
2021/12/27 12:29:01;;;;;;;5.22;4.35;;;9.40;84.70;;;;;;5004298;28;20405;-68
2021/12/27 12:31:30;;;;;;;3.97;3.60;;;9.40;84.20;;;;;;5003994;28;20041;-66
2021/12/27 12:34:14;;;;;;;3.97;3.58;;;9.50;84.40;;;;;;5004825;28;20088;-67
2021/12/27 12:36:54;;;;;;;5.60;4.80;;;9.50;84.10;;;;;;5005190;28;20433;-67
2021/12/27 12:39:23;;;;;;;4.30;3.90;;;9.50;84.30;;;;;;5002384;28;20046;-67
2021/12/27 12:41:50;;;;;;;4.63;4.03;;;9.60;84.30;;;;;;5004757;28;20058;-67
2021/12/27 12:44:17;;;;;;;4.80;4.18;;;9.60;85.10;;;;;;5006071;28;20026;-67
2021/12/27 12:46:49;;;;;;;4.75;4.25;;;9.60;84.10;;;;;;5008166;28;20417;-67
2021/12/27 12:49:22;;;;;;;5.03;4.53;;;9.60;83.70;;;;;;5006118;28;20029;-67
2021/12/27 12:51:47;;;;;;;5.32;4.82;;;9.60;83.60;;;;;;5006427;28;20527;-66
2021/12/27 12:54:27;;;;;;;4.63;4.22;;;9.60;83.80;;;;;;5001819;28;20038;-67
2021/12/27 12:56:59;;;;;;;4.57;4.18;;;9.60;83.50;;;;;;5005146;28;20505;-67
2021/12/27 12:59:43;;;;;;;6.35;4.28;;;9.60;83.90;;;;;;5006686;28;20033;-67
2021/12/27 13:02:13;;;;;;;4.45;4.05;;;9.60;83.70;;;;;;5007030;28;20061;-67